Lilongwe, Malawi
Current Conditions -  °F | °C
As of 2:00 PM on Thursday 30 Oct 2014 (Local Time) from FWKI Reporting Station
Broken Clouds Broken Clouds  
Wind Chill: 84°   Ceiling: 4800
Heat Index: 84°   Visibility: 6mi
Dew Point: 46°   Wind: 6mph
Humidity: 27%   Direction: 60°ENE
Pressure: 30"   Gusts: NA
Location:  13.97°S, 33.8°E
Report Text: FWKI 301200Z 06005KT 9999 BKN048 29/08 Q1016 NOSIG
Loading
Personal Weather Stations






























Interactive Weather Map New forecast layout! Learn more

10-Day Weather Forecast

Advertisements
Track Severe Weather on mobile